F/V Mailys Charlie — FMIW — position and weather

sailwx.info

Track history (hours):
 
Tides and Currents Weather Stations Pressure Air Temp Water Temp Dewpoint Dewpoint Depression Visibility Wind Speed Wind Dir Waves Ship Positions

F/V Mailys Charlie

Last reported at 2016-Jun-27 07:33 UTC. Time now 2016-Jun-27 07:46 UTC.
Position N 47°21' W 002°31'.

Length 19 m.

Type: Fishing. MMSI: 228240800.

Date/timePositionNaut miles runAvg speedWind from/ knotsBaromVisibWave heightAir tempDewpointWater temp
2016-Jun-27 07:33N 47°21' W 002°31'0 0.0
2016-Jun-27 06:33N 47°21' W 002°31'0 0.0
2016-Jun-27 05:33N 47°21' W 002°31'0 0.0
2016-Jun-27 04:33N 47°21' W 002°31'0 0.0
2016-Jun-27 03:33N 47°21' W 002°31'0 0.0
2016-Jun-27 02:33N 47°21' W 002°31'0 0.0
2016-Jun-27 01:33N 47°21' W 002°31'0 0.0
2016-Jun-27 00:33N 47°21' W 002°31'0 0.0
2016-Jun-26 23:33N 47°21' W 002°31'0 0.0
2016-Jun-26 22:33N 47°21' W 002°31'0 0.0
2016-Jun-26 21:33N 47°21' W 002°31'0 0.0
2016-Jun-26 20:33N 47°21' W 002°31'0 0.0
2016-Jun-26 19:33N 47°21' W 002°31'0 0.0
2016-Jun-26 18:33N 47°21' W 002°31'0 0.0
2016-Jun-26 17:33N 47°21' W 002°31'0 0.0
2016-Jun-26 16:33N 47°21' W 002°31'0 0.0
2016-Jun-26 15:33N 47°21' W 002°31'0 0.0
2016-Jun-26 14:33N 47°21' W 002°31'0 0.0
2016-Jun-26 13:33N 47°21' W 002°31'0 0.0
2016-Jun-26 12:33N 47°21' W 002°31'0 0.0
2016-Jun-26 11:33N 47°21' W 002°31'0 0.0
2016-Jun-26 10:33N 47°21' W 002°31'0 0.0
2016-Jun-26 09:34N 47°21' W 002°31'0 0.0
2016-Jun-26 08:33N 47°21' W 002°31'1 1.0
2016-Jun-26 07:33N 47°20' W 002°32'1010.3
2016-Jun-26 06:33N 47°18' W 002°47'1010.2
2016-Jun-26 05:33N 47°17' W 003°02'1110.6
2016-Jun-26 04:33N 47°14' W 003°17'1010.1
2016-Jun-26 03:33N 47°13' W 003°32'4 0.1
2016-Jun-24 21:32N 47°14' W 003°37'9 9.3
2016-Jun-24 20:33N 47°15' W 003°24'9 8.9
2016-Jun-24 19:33N 47°15' W 003°11'9 9.0
2016-Jun-24 18:33N 47°17' W 002°58'9 8.7
2016-Jun-24 17:33N 47°19' W 002°45'8 8.4
2016-Jun-24 16:32N 47°20' W 002°33'1 1.4
2016-Jun-24 15:33N 47°21' W 002°31'0 0.0
2016-Jun-24 14:33N 47°21' W 002°31'0 0.0
2016-Jun-24 13:33N 47°21' W 002°31'0 0.0
2016-Jun-24 12:25N 47°21' W 002°31'0 0.0
2016-Jun-24 11:33N 47°21' W 002°31'0 0.0
2016-Jun-24 10:33N 47°21' W 002°31'0 0.0
2016-Jun-24 09:33N 47°21' W 002°31'0 0.1
2016-Jun-24 08:30N 47°21' W 002°31'0 0.0
2016-Jun-24 07:32N 47°21' W 002°31'2 0.6
2016-Jun-24 04:33N 47°20' W 002°33'10 9.9
2016-Jun-24 03:33N 47°18' W 002°48'1110.4
2016-Jun-24 02:33N 47°16' W 003°03'1010.2
2016-Jun-24 01:33N 47°16' W 003°18'10 9.7
2016-Jun-24 00:33N 47°15' W 003°32'10 9.7
2016-Jun-23 23:34N 47°15' W 003°46'10 9.7
2016-Jun-23 22:31N 47°15' W 004°01'9 9.4
2016-Jun-23 21:32N 47°14' W 004°15'11 9.6
2016-Jun-23 20:24N 47°14' W 004°31'36 9.4
2016-Jun-23 16:33N 47°12' W 005°24'2 0.9
2016-Jun-23 14:15N 47°11' W 005°21'61 2.3
2016-Jun-22 12:15N 47°13' W 003°52'8 9.6
2016-Jun-22 11:28N 47°13' W 003°41'9 9.9
2016-Jun-22 10:32N 47°14' W 003°28'1010.1
2016-Jun-22 09:31N 47°15' W 003°12'1111.0
2016-Jun-22 08:33N 47°16' W 002°57'1010.5
2016-Jun-22 07:33N 47°19' W 002°42'8 7.7
2016-Jun-22 06:33N 47°21' W 002°31'0 0.0
2016-Jun-22 05:33N 47°21' W 002°31'6 6.2
2016-Jun-22 04:33N 47°19' W 002°40'1010.1
2016-Jun-22 03:33N 47°17' W 002°54'1010.4
2016-Jun-22 02:33N 47°15' W 003°09'1010.2
2016-Jun-22 01:33N 47°14' W 003°24'1210.2
2016-Jun-22 00:24N 47°14' W 003°42'49 2.2
2016-Jun-21 02:12N 46°58' W 004°51'5 0.9
2016-Jun-20 20:31N 47°01' W 004°44'2 2.2
2016-Jun-20 19:24N 46°59' W 004°46'4 2.0
2016-Jun-20 17:19N 47°01' W 004°52'56 7.1
2016-Jun-20 09:22N 47°11' W 003°30'7 8.4
2016-Jun-20 08:33N 47°13' W 003°20'9 8.8
2016-Jun-20 07:33N 47°14' W 003°07'9 9.3
2016-Jun-20 06:33N 47°17' W 002°54'9 9.2
2016-Jun-20 05:33N 47°19' W 002°41'7 7.0
2016-Jun-20 04:33N 47°21' W 002°31'0 0.0
2016-Jun-20 03:33N 47°21' W 002°31'0 0.0
2016-Jun-20 02:33N 47°21' W 002°31'8 8.1
2016-Jun-20 01:33N 47°14' W 002°38'1110.9
2016-Jun-20 00:33N 47°08' W 002°51'1010.5
2016-Jun-19 23:33N 47°01' W 003°03'1010.4
2016-Jun-19 22:33N 46°55' W 003°15'14 9.8
2016-Jun-19 21:08N 46°47' W 003°32'7 9.9
2016-Jun-19 20:23N 46°42' W 003°40'28 0.6
2016-Jun-17 21:24N 47°04' W 003°14'7 8.9
2016-Jun-17 20:33N 47°08' W 003°05'9 8.9
2016-Jun-17 19:33N 47°12' W 002°53'9 9.2
2016-Jun-17 18:33N 47°18' W 002°42'8 8.4
2016-Jun-17 17:34N 47°21' W 002°31'0 0.0
2016-Jun-17 16:33N 47°21' W 002°31'0 0.0
2016-Jun-17 15:33N 47°21' W 002°31'0 0.0
2016-Jun-17 14:33N 47°21' W 002°31'0 0.0
2016-Jun-17 13:33N 47°21' W 002°31'0 0.0
2016-Jun-17 12:33N 47°21' W 002°31'0 0.0
2016-Jun-17 11:33N 47°21' W 002°31'0 0.0
2016-Jun-17 10:33N 47°21' W 002°31'0 0.0
2016-Jun-17 09:33N 47°21' W 002°31'0 0.0
2016-Jun-17 08:33N 47°21' W 002°31'  
Track history (hours):
 
Tides and Currents Weather Stations Pressure Air Temp Water Temp Dewpoint Dewpoint Depression Visibility Wind Speed Wind Dir Waves Ship Positions

F/V Mailys Charlie

Last reported at 2016-Jun-27 07:33 UTC. Time now 2016-Jun-27 07:46 UTC.
Position N 47°21' W 002°31'.

Length 19 m.

Type: Fishing. MMSI: 228240800.

Date/timePositionNaut miles runAvg speedWind from/ knotsBaromVisibWave heightAir tempDewpointWater temp
2016-Jun-27 07:33N 47°21' W 002°31'0 0.0
2016-Jun-27 06:33N 47°21' W 002°31'0 0.0
2016-Jun-27 05:33N 47°21' W 002°31'0 0.0
2016-Jun-27 04:33N 47°21' W 002°31'0 0.0
2016-Jun-27 03:33N 47°21' W 002°31'0 0.0
2016-Jun-27 02:33N 47°21' W 002°31'0 0.0
2016-Jun-27 01:33N 47°21' W 002°31'0 0.0
2016-Jun-27 00:33N 47°21' W 002°31'0 0.0
2016-Jun-26 23:33N 47°21' W 002°31'0 0.0
2016-Jun-26 22:33N 47°21' W 002°31'0 0.0
2016-Jun-26 21:33N 47°21' W 002°31'0 0.0
2016-Jun-26 20:33N 47°21' W 002°31'0 0.0
2016-Jun-26 19:33N 47°21' W 002°31'0 0.0
2016-Jun-26 18:33N 47°21' W 002°31'0 0.0
2016-Jun-26 17:33N 47°21' W 002°31'0 0.0
2016-Jun-26 16:33N 47°21' W 002°31'0 0.0
2016-Jun-26 15:33N 47°21' W 002°31'0 0.0
2016-Jun-26 14:33N 47°21' W 002°31'0 0.0
2016-Jun-26 13:33N 47°21' W 002°31'0 0.0
2016-Jun-26 12:33N 47°21' W 002°31'0 0.0
2016-Jun-26 11:33N 47°21' W 002°31'0 0.0
2016-Jun-26 10:33N 47°21' W 002°31'0 0.0
2016-Jun-26 09:34N 47°21' W 002°31'0 0.0
2016-Jun-26 08:33N 47°21' W 002°31'1 1.0
2016-Jun-26 07:33N 47°20' W 002°32'1010.3
2016-Jun-26 06:33N 47°18' W 002°47'1010.2
2016-Jun-26 05:33N 47°17' W 003°02'1110.6
2016-Jun-26 04:33N 47°14' W 003°17'1010.1
2016-Jun-26 03:33N 47°13' W 003°32'4 0.1
2016-Jun-24 21:32N 47°14' W 003°37'9 9.3
2016-Jun-24 20:33N 47°15' W 003°24'9 8.9
2016-Jun-24 19:33N 47°15' W 003°11'9 9.0
2016-Jun-24 18:33N 47°17' W 002°58'9 8.7
2016-Jun-24 17:33N 47°19' W 002°45'8 8.4
2016-Jun-24 16:32N 47°20' W 002°33'1 1.4
2016-Jun-24 15:33N 47°21' W 002°31'0 0.0
2016-Jun-24 14:33N 47°21' W 002°31'0 0.0
2016-Jun-24 13:33N 47°21' W 002°31'0 0.0
2016-Jun-24 12:25N 47°21' W 002°31'0 0.0
2016-Jun-24 11:33N 47°21' W 002°31'0 0.0
2016-Jun-24 10:33N 47°21' W 002°31'0 0.0
2016-Jun-24 09:33N 47°21' W 002°31'0 0.1
2016-Jun-24 08:30N 47°21' W 002°31'0 0.0
2016-Jun-24 07:32N 47°21' W 002°31'2 0.6
2016-Jun-24 04:33N 47°20' W 002°33'10 9.9
2016-Jun-24 03:33N 47°18' W 002°48'1110.4
2016-Jun-24 02:33N 47°16' W 003°03'1010.2
2016-Jun-24 01:33N 47°16' W 003°18'10 9.7
2016-Jun-24 00:33N 47°15' W 003°32'10 9.7
2016-Jun-23 23:34N 47°15' W 003°46'10 9.7
2016-Jun-23 22:31N 47°15' W 004°01'9 9.4
2016-Jun-23 21:32N 47°14' W 004°15'11 9.6
2016-Jun-23 20:24N 47°14' W 004°31'36 9.4
2016-Jun-23 16:33N 47°12' W 005°24'2 0.9
2016-Jun-23 14:15N 47°11' W 005°21'61 2.3
2016-Jun-22 12:15N 47°13' W 003°52'8 9.6
2016-Jun-22 11:28N 47°13' W 003°41'9 9.9
2016-Jun-22 10:32N 47°14' W 003°28'1010.1
2016-Jun-22 09:31N 47°15' W 003°12'1111.0
2016-Jun-22 08:33N 47°16' W 002°57'1010.5
2016-Jun-22 07:33N 47°19' W 002°42'8 7.7
2016-Jun-22 06:33N 47°21' W 002°31'0 0.0
2016-Jun-22 05:33N 47°21' W 002°31'6 6.2
2016-Jun-22 04:33N 47°19' W 002°40'1010.1
2016-Jun-22 03:33N 47°17' W 002°54'1010.4
2016-Jun-22 02:33N 47°15' W 003°09'1010.2
2016-Jun-22 01:33N 47°14' W 003°24'1210.2
2016-Jun-22 00:24N 47°14' W 003°42'49 2.2
2016-Jun-21 02:12N 46°58' W 004°51'5 0.9
2016-Jun-20 20:31N 47°01' W 004°44'2 2.2
2016-Jun-20 19:24N 46°59' W 004°46'4 2.0
2016-Jun-20 17:19N 47°01' W 004°52'56 7.1
2016-Jun-20 09:22N 47°11' W 003°30'7 8.4
2016-Jun-20 08:33N 47°13' W 003°20'9 8.8
2016-Jun-20 07:33N 47°14' W 003°07'9 9.3
2016-Jun-20 06:33N 47°17' W 002°54'9 9.2
2016-Jun-20 05:33N 47°19' W 002°41'7 7.0
2016-Jun-20 04:33N 47°21' W 002°31'0 0.0
2016-Jun-20 03:33N 47°21' W 002°31'0 0.0
2016-Jun-20 02:33N 47°21' W 002°31'8 8.1
2016-Jun-20 01:33N 47°14' W 002°38'1110.9
2016-Jun-20 00:33N 47°08' W 002°51'1010.5
2016-Jun-19 23:33N 47°01' W 003°03'1010.4
2016-Jun-19 22:33N 46°55' W 003°15'14 9.8
2016-Jun-19 21:08N 46°47' W 003°32'7 9.9
2016-Jun-19 20:23N 46°42' W 003°40'28 0.6
2016-Jun-17 21:24N 47°04' W 003°14'7 8.9
2016-Jun-17 20:33N 47°08' W 003°05'9 8.9
2016-Jun-17 19:33N 47°12' W 002°53'9 9.2
2016-Jun-17 18:33N 47°18' W 002°42'8 8.4
2016-Jun-17 17:34N 47°21' W 002°31'0 0.0
2016-Jun-17 16:33N 47°21' W 002°31'0 0.0
2016-Jun-17 15:33N 47°21' W 002°31'0 0.0
2016-Jun-17 14:33N 47°21' W 002°31'0 0.0
2016-Jun-17 13:33N 47°21' W 002°31'0 0.0
2016-Jun-17 12:33N 47°21' W 002°31'0 0.0
2016-Jun-17 11:33N 47°21' W 002°31'0 0.0
2016-Jun-17 10:33N 47°21' W 002°31'0 0.0
2016-Jun-17 09:33N 47°21' W 002°31'0 0.0
2016-Jun-17 08:33N 47°21' W 002°31'  

Dump ship's entire track history